Time;durP1;ratioP1;P1;durP2;ratioP2;P2;SDS_P1;SDS_P2;PMS_P1;PMS_P2;Temp;Humidity;BMP_temperature;BMP_pressure;BME280_temperature;BME280_humidity;BME280_pressure;Samples;Min_cycle;Max_cycle;Signal;HPM_P1;HPM_P2
2022/11/18 00:00:55;;;;;;;58.63;31.20;;;7.60;99.90;;;;;;4974199;28;20042;-76
2022/11/18 00:03:22;;;;;;;60.63;30.55;;;7.60;99.90;;;;;;4993972;28;20045;-76
2022/11/18 00:05:57;;;;;;;78.22;32.38;;;7.70;99.90;;;;;;4991504;28;20065;-76
2022/11/18 00:08:26;;;;;;;78.20;32.17;;;7.70;99.90;;;;;;4976379;28;20052;-76
2022/11/18 00:10:53;;;;;;;68.90;31.00;;;7.80;99.90;;;;;;4978619;28;20053;-76
2022/11/18 00:16:09;;;;;;;;;;;7.80;99.90;;;;;;4994678;28;20038;-76
2022/11/18 00:18:36;;;;;;;67.03;32.35;;;7.80;99.90;;;;;;4979748;28;19921;-77
2022/11/18 00:21:08;;;;;;;68.85;31.77;;;7.70;99.90;;;;;;4972658;28;20050;-78
2022/11/18 00:23:36;;;;;;;89.95;35.88;;;7.60;99.90;;;;;;4976904;28;20050;-78
2022/11/18 00:26:05;;;;;;;74.32;32.17;;;7.60;99.90;;;;;;4975257;28;20149;-78
2022/11/18 00:28:33;;;;;;;82.68;35.88;;;7.70;99.90;;;;;;4987109;28;20037;-78
2022/11/18 00:31:08;;;;;;;79.13;34.35;;;7.70;99.90;;;;;;4973595;28;20048;-76
2022/11/18 00:33:36;;;;;;;77.78;35.40;;;7.70;99.90;;;;;;4978430;28;20088;-77
2022/11/18 00:36:04;;;;;;;69.32;34.85;;;7.70;99.90;;;;;;4977406;28;20167;-76
2022/11/18 00:38:31;;;;;;;79.20;34.92;;;7.80;99.90;;;;;;4955851;28;20053;-76
2022/11/18 00:41:03;;;;;;;74.32;33.03;;;7.70;99.90;;;;;;4959047;28;20066;-76
2022/11/18 00:43:30;;;;;;;75.60;30.63;;;7.70;99.90;;;;;;4953923;28;20603;-77
2022/11/18 00:45:57;;;;;;;67.60;32.17;;;7.60;99.90;;;;;;4976785;28;20042;-77
2022/11/18 00:48:25;;;;;;;79.45;34.20;;;7.60;99.90;;;;;;4981878;28;20054;-76
2022/11/18 00:50:55;;;;;;;79.00;34.03;;;7.60;99.90;;;;;;4995092;28;20057;-77
2022/11/18 00:53:23;;;;;;;86.53;34.13;;;7.40;99.90;;;;;;4973920;28;20065;-76
2022/11/18 00:55:50;;;;;;;77.07;32.65;;;7.50;99.90;;;;;;4961409;28;20046;-77
2022/11/18 00:58:18;;;;;;;87.63;32.60;;;7.60;99.90;;;;;;4965083;28;20049;-76
2022/11/18 01:00:48;;;;;;;75.07;32.50;;;7.50;99.90;;;;;;4978339;28;20038;-76
2022/11/18 01:03:16;;;;;;;83.45;33.95;;;7.50;99.90;;;;;;4986568;28;20046;-77
2022/11/18 01:05:42;;;;;;;76.22;33.80;;;7.50;99.90;;;;;;4962142;28;20045;-76
2022/11/18 01:08:10;;;;;;;80.13;33.38;;;7.40;99.90;;;;;;4962974;28;20054;-77
2022/11/18 01:10:39;;;;;;;90.72;34.72;;;7.40;99.90;;;;;;4973596;28;20053;-77
2022/11/18 01:13:19;;;;;;;93.88;35.42;;;7.40;99.90;;;;;;4991751;28;20046;-77
2022/11/18 01:15:53;;;;;;;84.18;34.22;;;7.30;99.90;;;;;;4971360;28;20110;-77
2022/11/18 01:18:26;;;;;;;78.65;35.67;;;7.30;99.90;;;;;;4974982;28;20050;-76
2022/11/18 01:20:52;;;;;;;96.00;37.42;;;7.30;99.90;;;;;;4969512;28;20421;-77
2022/11/18 01:23:20;;;;;;;87.50;36.83;;;7.20;99.90;;;;;;4980916;28;20049;-76
2022/11/18 01:25:48;;;;;;;94.93;37.45;;;7.20;99.90;;;;;;4962165;28;20034;-77
2022/11/18 01:28:17;;;;;;;105.63;37.92;;;7.20;99.90;;;;;;4955116;28;20050;-76
2022/11/18 01:30:49;;;;;;;95.57;37.58;;;7.10;99.90;;;;;;4973032;28;20053;-77
2022/11/18 01:33:16;;;;;;;114.22;40.58;;;7.20;99.90;;;;;;4974524;28;20039;-76
2022/11/18 01:35:43;;;;;;;107.40;38.50;;;7.20;99.90;;;;;;4979001;28;20546;-77
2022/11/18 01:38:12;;;;;;;122.70;43.88;;;7.30;99.90;;;;;;4964818;28;20031;-76
2022/11/18 01:40:39;;;;;;;133.43;41.70;;;7.20;99.90;;;;;;4969599;28;20046;-76
2022/11/18 01:43:18;;;;;;;125.03;42.33;;;7.30;99.90;;;;;;4990725;28;20546;-76
2022/11/18 01:45:47;;;;;;;129.77;41.75;;;7.20;99.90;;;;;;4964325;28;20105;-76
2022/11/18 01:48:20;;;;;;;150.85;41.78;;;7.30;99.90;;;;;;4977734;28;20057;-75
2022/11/18 01:51:09;;;;;;;143.63;43.53;;;7.30;99.90;;;;;;4979710;28;20042;-76
2022/11/18 01:54:01;;;;;;;133.73;41.30;;;7.30;99.90;;;;;;4975323;28;20042;-76
2022/11/18 01:56:36;;;;;;;160.75;45.40;;;7.30;99.90;;;;;;4955535;28;20037;-76
2022/11/18 01:59:07;;;;;;;168.73;46.72;;;7.20;99.90;;;;;;4958168;28;20404;-76
2022/11/18 02:01:34;;;;;;;193.73;47.72;;;7.20;99.90;;;;;;4963443;28;20038;-77
2022/11/18 02:04:26;;;;;;;166.63;44.92;;;7.30;99.90;;;;;;4994038;28;20148;-78
2022/11/18 02:06:54;;;;;;;255.13;56.35;;;7.30;99.90;;;;;;4979160;28;20046;-77
2022/11/18 02:09:21;;;;;;;272.55;53.53;;;7.40;99.90;;;;;;4977590;28;20046;-77
2022/11/18 02:11:50;;;;;;;275.67;53.22;;;7.30;99.90;;;;;;4971137;28;20042;-77
2022/11/18 02:14:21;;;;;;;262.92;54.28;;;7.40;99.90;;;;;;4971067;28;20050;-77
2022/11/18 02:17:07;;;;;;;236.15;51.83;;;7.30;99.90;;;;;;4990926;28;20034;-77
2022/11/18 02:19:45;;;;;;;249.15;51.47;;;7.30;99.90;;;;;;4964556;28;20046;-76
2022/11/18 02:22:51;;;;;;;250.95;54.05;;;7.30;99.90;;;;;;4972767;28;20042;-76
2022/11/18 02:25:41;;;;;;;196.75;46.53;;;7.40;99.90;;;;;;4992949;28;20050;-77
2022/11/18 02:28:14;;;;;;;257.70;51.33;;;7.40;99.90;;;;;;4956313;28;20104;-76
2022/11/18 02:30:54;;;;;;;260.60;51.65;;;7.50;99.90;;;;;;4984246;28;20541;-76
2022/11/18 02:33:46;;;;;;;217.88;46.08;;;7.50;99.90;;;;;;4992359;28;20050;-77
2022/11/18 02:36:15;;;;;;;263.05;49.80;;;7.40;99.90;;;;;;4946770;28;20047;-76
2022/11/18 02:38:47;;;;;;;191.80;45.17;;;7.50;99.90;;;;;;4978392;28;20491;-76
2022/11/18 02:41:22;;;;;;;196.77;45.65;;;7.50;99.90;;;;;;4963259;28;20034;-76
2022/11/18 02:43:54;;;;;;;157.90;41.75;;;7.60;99.90;;;;;;4973921;28;20065;-76
2022/11/18 02:46:29;;;;;;;146.30;40.33;;;7.50;99.90;;;;;;4976303;28;20054;-76
2022/11/18 02:48:56;;;;;;;132.70;38.00;;;7.40;99.90;;;;;;4977013;28;20054;-76
2022/11/18 02:51:27;;;;;;;125.35;35.00;;;7.30;99.90;;;;;;4977482;28;20045;-76
2022/11/18 02:53:58;;;;;;;132.95;38.42;;;7.40;99.90;;;;;;4997147;28;20046;-76
2022/11/18 02:56:26;;;;;;;139.30;37.28;;;7.40;99.90;;;;;;4991806;28;21856;-76
2022/11/18 02:58:52;;;;;;;127.55;37.63;;;7.40;99.90;;;;;;4978965;28;20099;-77
2022/11/18 03:01:24;;;;;;;129.57;38.05;;;7.40;99.90;;;;;;4970827;28;20042;-77
2022/11/18 03:03:50;;;;;;;130.80;37.92;;;7.30;99.90;;;;;;4969414;28;20137;-76
2022/11/18 03:06:26;;;;;;;129.20;39.60;;;7.30;99.90;;;;;;4969191;28;20038;-77
2022/11/18 03:09:10;;;;;;;132.02;39.63;;;7.30;99.90;;;;;;4978247;28;20064;-76
2022/11/18 03:12:01;;;;;;;135.35;39.00;;;7.30;99.90;;;;;;4963118;28;20107;-76
2022/11/18 03:14:50;;;;;;;158.60;42.38;;;7.30;99.90;;;;;;4977473;28;20133;-76
2022/11/18 03:17:36;;;;;;;149.93;40.58;;;7.30;99.90;;;;;;4964617;28;20523;-76
2022/11/18 03:20:08;;;;;;;139.85;38.25;;;7.30;99.90;;;;;;4968164;28;20042;-77
2022/11/18 03:22:42;;;;;;;139.93;38.95;;;7.30;99.90;;;;;;4970267;28;20037;-77
2022/11/18 03:25:27;;;;;;;132.20;39.92;;;7.30;99.90;;;;;;4982671;28;20042;-78
2022/11/18 03:28:08;;;;;;;132.68;39.25;;;7.30;99.90;;;;;;4981184;28;20056;-77
2022/11/18 03:30:38;;;;;;;127.88;38.25;;;7.20;99.90;;;;;;4973626;28;20407;-77
2022/11/18 03:33:09;;;;;;;123.80;36.97;;;7.30;99.90;;;;;;4973906;28;20046;-75
2022/11/18 03:35:40;;;;;;;115.95;36.95;;;7.40;99.90;;;;;;4996702;28;20034;-77
2022/11/18 03:38:14;;;;;;;112.95;36.95;;;7.40;99.90;;;;;;4964564;28;20042;-77
2022/11/18 03:40:47;;;;;;;110.03;36.23;;;7.30;99.90;;;;;;4995327;28;20045;-77
2022/11/18 03:43:20;;;;;;;128.52;39.20;;;7.30;99.90;;;;;;4990881;28;20653;-77
2022/11/18 03:45:58;;;;;;;131.95;39.22;;;7.40;99.90;;;;;;4975145;28;20057;-77
2022/11/18 03:48:30;;;;;;;138.32;41.90;;;7.40;99.90;;;;;;4970159;28;21317;-77
2022/11/18 03:51:04;;;;;;;147.25;42.58;;;7.40;99.90;;;;;;4994571;28;20046;-76
2022/11/18 03:53:38;;;;;;;138.18;40.67;;;7.40;99.90;;;;;;4964637;28;20056;-77
2022/11/18 03:56:18;;;;;;;132.88;41.08;;;7.50;99.90;;;;;;4952830;28;20047;-76
2022/11/18 03:58:52;;;;;;;153.32;43.92;;;7.50;99.90;;;;;;4972213;28;20050;-76
2022/11/18 04:01:41;;;;;;;171.38;45.90;;;7.40;99.90;;;;;;4967765;28;20045;-76
2022/11/18 04:04:09;;;;;;;193.40;49.85;;;7.40;99.90;;;;;;4975195;28;20058;-76
2022/11/18 04:06:46;;;;;;;184.13;49.55;;;7.40;99.90;;;;;;4982324;28;20046;-78
2022/11/18 04:09:22;;;;;;;229.85;53.75;;;7.40;99.90;;;;;;4987371;28;20054;-77
2022/11/18 04:12:03;;;;;;;226.73;54.50;;;7.30;99.90;;;;;;4961397;28;20052;-77
2022/11/18 04:14:37;;;;;;;194.13;50.03;;;7.40;99.90;;;;;;4978527;28;20053;-77
2022/11/18 04:17:16;;;;;;;208.77;50.78;;;7.50;99.90;;;;;;4963477;28;20053;-76
2022/11/18 04:19:43;;;;;;;191.60;49.72;;;7.40;99.90;;;;;;4981905;28;20547;-77
2022/11/18 04:22:11;;;;;;;196.90;52.53;;;7.30;99.90;;;;;;4961384;28;20398;-77
2022/11/18 04:24:38;;;;;;;201.85;49.70;;;7.40;99.90;;;;;;4970711;28;20042;-78
2022/11/18 04:27:12;;;;;;;216.25;49.92;;;7.50;99.90;;;;;;4964994;28;20064;-79
2022/11/18 04:29:39;;;;;;;206.40;51.17;;;7.40;99.90;;;;;;4967567;28;20051;-77
2022/11/18 04:32:05;;;;;;;173.70;47.63;;;7.40;99.90;;;;;;4963892;28;20607;-76
2022/11/18 04:34:32;;;;;;;190.88;47.40;;;7.40;99.90;;;;;;4975262;28;20041;-76
2022/11/18 04:36:59;;;;;;;167.52;45.35;;;7.40;99.90;;;;;;4969994;28;20150;-76
2022/11/18 04:39:25;;;;;;;181.63;48.28;;;7.40;99.90;;;;;;4957104;28;20776;-76
2022/11/18 04:41:55;;;;;;;190.27;48.92;;;7.40;99.90;;;;;;4971332;28;20050;-76
2022/11/18 04:44:30;;;;;;;209.52;50.10;;;7.40;99.90;;;;;;4980630;28;20568;-77
2022/11/18 04:46:57;;;;;;;;;;;7.40;99.90;;;;;;4972954;28;20550;-77
2022/11/18 04:49:25;;;;;;;183.02;46.20;;;7.50;99.90;;;;;;4992329;28;19929;-77
2022/11/18 04:51:51;;;;;;;197.40;47.03;;;7.40;99.90;;;;;;4981789;28;20042;-77
2022/11/18 04:54:19;;;;;;;198.05;48.40;;;7.50;99.90;;;;;;4980931;28;20219;-77
2022/11/18 04:56:46;;;;;;;208.88;48.70;;;7.50;99.90;;;;;;4979287;28;20046;-78
2022/11/18 04:59:18;;;;;;;204.02;50.63;;;7.50;99.90;;;;;;4979810;28;20065;-77
2022/11/18 05:01:47;;;;;;;202.63;48.97;;;7.30;99.90;;;;;;4960089;28;20058;-77
2022/11/18 05:04:16;;;;;;;230.35;48.58;;;7.30;99.90;;;;;;4953936;28;20439;-77
2022/11/18 05:06:43;;;;;;;208.32;47.15;;;7.50;99.90;;;;;;4951118;28;20042;-78
2022/11/18 05:09:10;;;;;;;182.40;45.80;;;7.60;99.90;;;;;;4971723;28;20152;-77
2022/11/18 05:14:26;;;;;;;164.05;43.28;;;7.60;99.90;;;;;;4964284;28;20035;-77
2022/11/18 05:16:54;;;;;;;163.63;43.25;;;7.60;99.90;;;;;;4988213;28;20046;-77
2022/11/18 05:19:20;;;;;;;150.68;40.92;;;7.70;99.90;;;;;;4992631;28;20045;-77
2022/11/18 05:21:47;;;;;;;145.40;43.20;;;7.60;99.90;;;;;;4961044;28;20050;-77
2022/11/18 05:24:14;;;;;;;161.13;43.25;;;7.60;99.90;;;;;;4981370;28;20137;-79
2022/11/18 05:26:41;;;;;;;166.85;43.75;;;7.50;99.90;;;;;;4974013;28;20497;-77
2022/11/18 05:29:11;;;;;;;174.23;45.75;;;7.40;99.90;;;;;;4985839;28;20042;-77
2022/11/18 05:31:38;;;;;;;186.75;46.30;;;7.40;99.90;;;;;;4983863;28;20038;-77
2022/11/18 05:34:05;;;;;;;155.95;41.35;;;7.50;99.90;;;;;;4980042;28;20503;-76
2022/11/18 05:36:33;;;;;;;157.27;41.00;;;7.40;99.90;;;;;;4973332;28;20463;-77
2022/11/18 05:38:59;;;;;;;140.68;39.90;;;7.40;99.90;;;;;;4948350;28;20046;-77
2022/11/18 05:44:11;;;;;;;164.35;44.28;;;7.30;99.90;;;;;;4980180;28;20051;-78
2022/11/18 05:46:38;;;;;;;195.68;47.65;;;7.40;99.90;;;;;;4984858;28;20420;-77
2022/11/18 05:49:04;;;;;;;181.85;45.80;;;7.40;99.90;;;;;;4975686;28;20054;-78
2022/11/18 05:51:31;;;;;;;195.20;47.42;;;7.40;99.90;;;;;;4946263;28;20054;-77
2022/11/18 05:53:59;;;;;;;243.50;51.90;;;7.40;99.90;;;;;;4975248;28;20045;-77
2022/11/18 05:56:35;;;;;;;233.75;50.72;;;7.40;99.90;;;;;;4973948;28;20642;-77
2022/11/18 05:59:03;;;;;;;226.48;50.65;;;7.40;99.90;;;;;;4968108;28;20045;-77
2022/11/18 06:01:32;;;;;;;259.17;51.90;;;7.50;99.90;;;;;;4985789;28;20053;-77
2022/11/18 06:04:02;;;;;;;254.30;51.75;;;7.40;99.90;;;;;;4961892;28;20042;-77
2022/11/18 06:06:28;;;;;;;268.00;53.58;;;7.40;99.90;;;;;;4973856;28;20128;-77
2022/11/18 06:09:07;;;;;;;272.00;56.78;;;7.30;99.90;;;;;;4979400;28;20042;-77
2022/11/18 06:11:42;;;;;;;300.40;56.42;;;7.20;99.90;;;;;;4967004;28;20407;-77
2022/11/18 06:14:15;;;;;;;;;;;7.20;99.90;;;;;;4970609;28;20050;-77
2022/11/18 06:16:48;;;;;;;241.18;49.00;;;7.10;99.90;;;;;;4986436;28;19926;-77
2022/11/18 06:19:15;;;;;;;258.55;51.13;;;7.10;99.90;;;;;;4963886;28;20161;-77
2022/11/18 06:21:44;;;;;;;248.70;52.38;;;7.10;99.90;;;;;;4988012;28;20054;-77
2022/11/18 06:24:12;;;;;;;268.95;55.90;;;7.00;99.90;;;;;;4957619;28;20050;-77
2022/11/18 06:26:39;;;;;;;231.52;49.63;;;7.00;99.90;;;;;;4967761;28;20049;-77
2022/11/18 06:29:10;;;;;;;263.90;55.15;;;7.00;99.90;;;;;;4969601;28;20057;-77
2022/11/18 06:31:36;;;;;;;243.90;52.35;;;7.10;99.90;;;;;;4965748;28;20046;-77
2022/11/18 06:34:03;;;;;;;242.68;52.72;;;7.10;99.90;;;;;;4966600;28;20046;-77
2022/11/18 06:36:30;;;;;;;211.73;47.97;;;7.20;99.90;;;;;;4982249;28;20038;-77
2022/11/18 06:39:04;;;;;;;253.00;55.47;;;7.20;99.90;;;;;;4968177;28;20056;-77
2022/11/18 06:41:31;;;;;;;258.77;53.55;;;7.30;99.90;;;;;;4972645;28;20061;-77
2022/11/18 06:43:58;;;;;;;245.52;52.95;;;7.30;99.90;;;;;;4990458;28;20042;-78
2022/11/18 06:49:10;;;;;;;202.00;45.08;;;7.50;99.90;;;;;;4966402;28;20035;-77
2022/11/18 06:51:38;;;;;;;164.25;42.15;;;7.40;99.90;;;;;;4967643;28;20035;-77
2022/11/18 06:54:05;;;;;;;163.55;44.22;;;7.40;99.90;;;;;;4969982;28;20055;-77
2022/11/18 06:56:38;;;;;;;159.75;40.20;;;7.40;99.90;;;;;;4976604;28;20063;-77
2022/11/18 06:59:04;;;;;;;159.45;41.65;;;7.30;99.90;;;;;;4951752;28;20053;-77
2022/11/18 07:01:35;;;;;;;132.00;38.88;;;7.40;99.90;;;;;;4985425;28;20046;-77
2022/11/18 07:04:02;;;;;;;158.80;39.03;;;7.60;99.90;;;;;;4991219;28;20065;-76
2022/11/18 07:06:31;;;;;;;121.78;37.53;;;7.60;99.90;;;;;;4961881;28;21494;-77
2022/11/18 07:09:00;;;;;;;137.05;39.92;;;7.60;99.90;;;;;;4958425;28;20049;-77
2022/11/18 07:11:27;;;;;;;131.23;38.72;;;7.50;99.90;;;;;;4970362;28;20057;-77
2022/11/18 07:13:54;;;;;;;127.43;35.67;;;7.50;99.90;;;;;;4967276;28;20062;-77
2022/11/18 07:16:23;;;;;;;129.10;37.65;;;7.40;99.90;;;;;;4979781;28;20042;-77
2022/11/18 07:18:50;;;;;;;132.77;36.97;;;7.50;99.90;;;;;;4990613;28;20042;-76
2022/11/18 07:21:19;;;;;;;135.98;40.20;;;7.50;99.90;;;;;;4977991;28;20038;-76
2022/11/18 07:23:46;;;;;;;140.82;38.58;;;7.50;99.90;;;;;;4975910;28;20053;-78
2022/11/18 07:26:14;;;;;;;133.63;38.35;;;7.60;99.90;;;;;;4965846;28;20034;-76
2022/11/18 07:28:41;;;;;;;142.75;41.15;;;7.60;99.90;;;;;;4964538;28;20113;-78
2022/11/18 07:31:09;;;;;;;150.70;41.65;;;7.50;99.90;;;;;;4969816;28;20065;-77
2022/11/18 07:33:37;;;;;;;166.30;39.35;;;7.70;99.90;;;;;;4965820;28;20042;-77
2022/11/18 07:36:26;;;;;;;158.77;41.97;;;7.60;99.90;;;;;;4968361;28;20132;-77
2022/11/18 07:39:03;;;;;;;211.82;47.17;;;7.60;99.90;;;;;;4977572;28;20042;-76
2022/11/18 07:41:30;;;;;;;167.50;42.90;;;7.70;99.90;;;;;;4970106;28;20116;-77
2022/11/18 07:43:59;;;;;;;165.38;44.25;;;7.70;99.90;;;;;;4973479;28;20047;-76
2022/11/18 07:46:33;;;;;;;184.98;44.28;;;7.80;99.90;;;;;;4989435;28;20050;-76
2022/11/18 07:49:02;;;;;;;151.45;42.78;;;7.80;99.90;;;;;;4966190;28;20293;-75
2022/11/18 07:51:34;;;;;;;134.50;41.00;;;7.70;99.90;;;;;;4986086;28;20046;-77
2022/11/18 07:54:15;;;;;;;171.75;47.97;;;7.70;99.90;;;;;;4988192;28;20508;-77
2022/11/18 07:56:42;;;;;;;140.60;42.85;;;7.70;99.90;;;;;;4974714;28;20072;-77
2022/11/18 07:59:09;;;;;;;120.85;39.90;;;7.60;99.90;;;;;;4969159;28;20048;-77
2022/11/18 08:01:36;;;;;;;127.05;39.95;;;7.60;99.90;;;;;;4970970;28;20057;-77
2022/11/18 08:04:08;;;;;;;129.10;39.33;;;7.60;99.90;;;;;;4971201;28;20053;-77
2022/11/18 08:06:35;;;;;;;111.93;37.08;;;7.60;99.90;;;;;;4971987;28;20077;-76
2022/11/18 08:09:04;;;;;;;109.38;38.30;;;7.70;99.90;;;;;;4969233;28;20140;-77
2022/11/18 08:11:31;;;;;;;103.95;38.10;;;7.70;99.90;;;;;;4981017;28;20121;-76
2022/11/18 08:13:58;;;;;;;105.65;35.80;;;7.80;99.90;;;;;;4966740;28;20516;-75
2022/11/18 08:16:25;;;;;;;112.28;37.25;;;7.70;99.90;;;;;;4970935;28;20046;-76
2022/11/18 08:18:52;;;;;;;112.60;37.35;;;7.70;99.90;;;;;;4967522;28;20046;-76
2022/11/18 08:21:21;;;;;;;103.43;35.30;;;7.70;99.90;;;;;;4950027;28;20038;-75
2022/11/18 08:23:52;;;;;;;105.60;39.33;;;7.60;99.90;;;;;;4965453;28;20039;-76
2022/11/18 08:26:20;;;;;;;109.28;39.15;;;7.60;99.90;;;;;;4984539;28;20041;-76
2022/11/18 08:28:47;;;;;;;111.82;37.88;;;7.70;99.90;;;;;;4960828;28;20051;-75
2022/11/18 08:31:25;;;;;;;108.47;37.65;;;7.70;99.90;;;;;;4962443;28;20108;-76
2022/11/18 08:34:02;;;;;;;103.90;37.10;;;7.80;99.90;;;;;;4963042;28;20133;-75
2022/11/18 08:36:31;;;;;;;105.97;37.72;;;7.80;99.90;;;;;;4948146;28;20527;-75
2022/11/18 08:39:00;;;;;;;104.05;36.13;;;7.90;99.90;;;;;;4992875;28;20060;-76
2022/11/18 08:41:35;;;;;;;101.65;36.15;;;7.90;99.90;;;;;;4969621;28;20038;-76
2022/11/18 08:44:04;;;;;;;100.45;34.45;;;7.80;99.90;;;;;;4989680;28;20528;-76
2022/11/18 08:46:31;;;;;;;93.28;36.13;;;7.90;99.90;;;;;;4984200;28;20048;-75
2022/11/18 08:48:58;;;;;;;95.97;35.85;;;7.90;99.90;;;;;;4976794;28;20055;-76
2022/11/18 08:51:25;;;;;;;104.20;36.75;;;7.80;99.90;;;;;;4969371;28;20043;-76
2022/11/18 08:53:52;;;;;;;124.25;42.00;;;7.70;99.90;;;;;;4965308;28;20047;-75
2022/11/18 08:56:20;;;;;;;123.97;43.25;;;7.70;99.90;;;;;;4970338;28;20106;-75
2022/11/18 08:58:47;;;;;;;121.68;42.13;;;7.70;99.90;;;;;;4980269;28;20526;-75
2022/11/18 09:01:13;;;;;;;132.35;41.65;;;7.80;99.90;;;;;;4968146;28;20041;-76
2022/11/18 09:03:41;;;;;;;113.88;40.42;;;7.70;99.90;;;;;;4975201;28;20081;-75
2022/11/18 09:06:16;;;;;;;130.52;44.35;;;7.70;99.90;;;;;;4955283;28;20048;-75
2022/11/18 09:08:44;;;;;;;123.72;42.45;;;7.70;99.90;;;;;;4953348;28;20057;-76
2022/11/18 09:11:20;;;;;;;134.68;43.35;;;7.60;99.90;;;;;;4986932;28;20527;-77
2022/11/18 09:13:50;;;;;;;128.50;41.90;;;7.60;99.90;;;;;;4978389;28;20076;-76
2022/11/18 09:16:37;;;;;;;154.60;43.33;;;7.70;99.90;;;;;;4974014;28;20081;-76
2022/11/18 09:19:03;;;;;;;131.70;43.65;;;7.70;99.90;;;;;;4973012;28;20073;-75
2022/11/18 09:21:50;;;;;;;131.98;42.58;;;7.70;99.90;;;;;;4992761;28;20038;-76
2022/11/18 09:24:17;;;;;;;150.15;41.97;;;7.60;99.90;;;;;;4973214;28;20062;-75
2022/11/18 09:26:44;;;;;;;142.23;43.50;;;7.60;99.90;;;;;;4955697;28;20043;-75
2022/11/18 09:29:11;;;;;;;144.90;41.53;;;7.60;99.90;;;;;;4976788;28;20043;-76
2022/11/18 09:31:38;;;;;;;152.93;42.30;;;7.70;99.90;;;;;;4972446;28;20046;-76
2022/11/18 09:34:05;;;;;;;150.02;44.72;;;7.70;99.90;;;;;;4972574;28;20649;-76
2022/11/18 09:36:34;;;;;;;140.10;43.53;;;7.70;99.90;;;;;;4978152;28;20068;-76
2022/11/18 09:39:00;;;;;;;145.20;39.28;;;7.70;99.90;;;;;;4980284;28;20714;-76
2022/11/18 09:41:51;;;;;;;145.55;44.08;;;7.80;99.90;;;;;;4970333;28;20117;-77
2022/11/18 09:44:49;;;;;;;133.38;38.88;;;7.80;99.90;;;;;;4965338;28;20049;-74
2022/11/18 09:47:31;;;;;;;152.38;42.17;;;8.00;99.90;;;;;;4964548;28;20046;-75
2022/11/18 09:50:24;;;;;;;129.23;38.63;;;8.00;99.90;;;;;;4987334;28;20041;-76
2022/11/18 09:53:40;;;;;;;151.38;41.28;;;7.80;99.90;;;;;;4959550;28;20041;-77
2022/11/18 09:56:15;;;;;;;135.82;39.88;;;7.90;99.90;;;;;;4952703;28;20048;-76
2022/11/18 09:58:43;;;;;;;158.40;40.67;;;7.90;99.90;;;;;;4993432;28;20573;-76
2022/11/18 10:01:18;;;;;;;140.57;39.35;;;8.00;99.90;;;;;;4978208;28;20042;-76
2022/11/18 10:03:45;;;;;;;135.43;37.88;;;8.00;99.90;;;;;;4987720;28;20050;-75
2022/11/18 10:06:24;;;;;;;159.02;41.05;;;7.90;99.90;;;;;;4973376;28;20043;-76
2022/11/18 10:09:30;;;;;;;142.35;38.42;;;7.90;99.90;;;;;;4970889;28;20041;-75
2022/11/18 10:12:13;;;;;;;153.50;38.97;;;7.80;99.90;;;;;;4948428;28;20660;-76
2022/11/18 10:15:08;;;;;;;174.45;41.42;;;7.80;99.90;;;;;;4977534;28;20042;-76
2022/11/18 10:17:49;;;;;;;149.82;39.05;;;7.80;99.90;;;;;;4971655;28;20046;-75
2022/11/18 10:20:21;;;;;;;163.52;39.50;;;7.70;99.90;;;;;;4990315;28;20054;-74
2022/11/18 10:23:06;;;;;;;171.20;42.45;;;7.70;99.90;;;;;;4984485;28;20536;-75
2022/11/18 10:25:33;;;;;;;183.98;44.25;;;7.70;99.90;;;;;;4979658;28;20046;-77
2022/11/18 10:28:19;;;;;;;203.48;44.13;;;7.60;99.90;;;;;;4980515;28;20046;-75
2022/11/18 10:30:46;;;;;;;175.40;41.67;;;7.60;99.90;;;;;;4971456;28;20520;-76
2022/11/18 10:33:21;;;;;;;200.15;47.00;;;7.60;99.90;;;;;;4980363;28;20047;-75
2022/11/18 10:35:50;;;;;;;163.50;41.50;;;7.60;99.90;;;;;;4983910;28;20039;-77
2022/11/18 10:38:22;;;;;;;173.45;41.92;;;7.60;99.90;;;;;;4971443;28;20045;-76
2022/11/18 10:40:48;;;;;;;163.13;40.50;;;7.60;99.90;;;;;;4973155;28;20054;-76
2022/11/18 10:43:48;;;;;;;156.30;40.08;;;7.50;99.90;;;;;;4990444;28;20070;-76
2022/11/18 10:46:32;;;;;;;147.90;40.22;;;7.50;99.90;;;;;;4963197;28;20088;-77
2022/11/18 10:49:08;;;;;;;136.45;37.72;;;7.60;99.90;;;;;;4976551;28;20132;-77
2022/11/18 10:51:36;;;;;;;118.53;35.70;;;7.60;99.90;;;;;;4987071;28;20029;-77
2022/11/18 10:54:21;;;;;;;100.40;34.13;;;7.70;99.90;;;;;;4983553;28;20049;-76
2022/11/18 10:57:15;;;;;;;96.93;34.92;;;7.70;99.90;;;;;;4988341;28;20054;-76
2022/11/18 10:59:49;;;;;;;86.93;31.77;;;7.80;99.90;;;;;;4990075;28;20043;-76
2022/11/18 11:02:23;;;;;;;90.18;31.55;;;7.70;99.90;;;;;;4982214;28;20129;-75
2022/11/18 11:04:51;;;;;;;78.68;29.58;;;7.70;99.90;;;;;;4978017;28;20045;-77
2022/11/18 11:07:32;;;;;;;77.95;30.30;;;7.60;99.90;;;;;;4991363;28;20056;-77
2022/11/18 11:10:05;;;;;;;87.13;30.52;;;7.70;99.90;;;;;;4982423;28;20046;-76
2022/11/18 11:12:46;;;;;;;86.85;30.27;;;7.80;99.90;;;;;;4973785;28;20411;-76
2022/11/18 11:15:18;;;;;;;103.20;33.58;;;7.80;99.90;;;;;;4984207;28;20112;-77
2022/11/18 11:18:40;;;;;;;101.53;35.72;;;7.80;99.90;;;;;;4945969;28;20043;-76
2022/11/18 11:20:37;;;;;;;118.15;36.22;;;7.70;99.90;;;;;;4966257;28;20058;-76
2022/11/18 11:23:14;;;;;;;114.78;37.40;;;7.80;99.90;;;;;;4966374;28;20034;-77
2022/11/18 11:26:02;;;;;;;115.47;34.63;;;7.70;99.90;;;;;;4984452;28;20133;-76
2022/11/18 11:29:14;;;;;;;101.63;34.00;;;7.60;99.90;;;;;;4984282;28;20031;-77
2022/11/18 11:31:43;;;;;;;105.05;33.35;;;7.60;99.90;;;;;;4987008;28;20053;-77
2022/11/18 11:34:16;;;;;;;101.30;31.77;;;7.60;99.90;;;;;;4970971;28;20050;-77
2022/11/18 11:36:43;;;;;;;87.35;29.77;;;7.50;99.90;;;;;;4969721;28;20034;-76
2022/11/18 11:39:39;;;;;;;95.40;32.40;;;7.20;99.90;;;;;;4973614;28;20043;-77
2022/11/18 11:42:37;;;;;;;92.03;28.13;;;7.00;99.90;;;;;;4968850;28;20149;-76
2022/11/18 11:45:17;;;;;;;92.13;31.92;;;6.90;99.90;;;;;;4988076;28;20085;-76
2022/11/18 11:47:59;;;;;;;85.70;29.10;;;7.00;99.90;;;;;;4989035;28;20129;-76
2022/11/18 11:50:55;;;;;;;129.35;49.95;;;6.90;99.90;;;;;;4979896;28;20046;-76
2022/11/18 11:54:19;;;;;;;196.80;99.25;;;6.80;99.90;;;;;;4989403;28;20038;-76
2022/11/18 11:56:51;;;;;;;105.60;55.53;;;6.70;99.90;;;;;;4952491;28;20039;-77
2022/11/18 11:59:37;;;;;;;81.47;26.80;;;6.80;99.90;;;;;;4955832;28;20619;-77
2022/11/18 12:02:25;;;;;;;88.07;28.45;;;6.80;99.90;;;;;;4967042;28;20038;-76
2022/11/18 12:05:27;;;;;;;92.65;38.05;;;6.80;99.90;;;;;;4968776;28;20058;-76
2022/11/18 12:07:58;;;;;;;86.05;38.30;;;6.70;99.90;;;;;;4960106;28;20423;-76
2022/11/18 12:10:46;;;;;;;138.48;79.63;;;6.70;99.90;;;;;;4963080;28;20038;-76
2022/11/18 12:13:19;;;;;;;85.45;36.10;;;6.60;99.90;;;;;;4977789;28;20038;-76
2022/11/18 12:16:02;;;;;;;82.10;38.30;;;6.60;99.90;;;;;;4981715;28;20046;-76
2022/11/18 12:18:34;;;;;;;61.13;26.23;;;6.70;99.90;;;;;;4963750;28;20102;-76
2022/11/18 12:21:00;;;;;;;56.53;22.35;;;6.60;99.90;;;;;;4969765;28;20516;-76
2022/11/18 12:23:31;;;;;;;56.67;22.38;;;6.70;99.90;;;;;;4990069;28;20046;-75
2022/11/18 12:26:01;;;;;;;57.78;23.20;;;6.50;99.90;;;;;;4970752;28;20066;-76
2022/11/18 12:28:33;;;;;;;46.80;22.30;;;6.20;99.90;;;;;;4970092;28;20683;-76
2022/11/18 12:31:14;;;;;;;47.85;20.85;;;6.10;99.90;;;;;;4970130;28;20073;-76
2022/11/18 12:33:43;;;;;;;45.17;24.88;;;6.10;99.90;;;;;;4968317;28;20116;-76
2022/11/18 12:36:23;;;;;;;44.13;19.75;;;6.00;99.90;;;;;;4957504;28;20034;-77
2022/11/18 12:38:51;;;;;;;51.55;20.38;;;6.00;99.90;;;;;;4968527;28;20034;-77
2022/11/18 12:44:27;;;;;;;48.67;23.85;;;6.20;99.90;;;;;;4965380;28;20523;-77
2022/11/18 12:46:56;;;;;;;50.05;25.75;;;6.20;99.90;;;;;;4971840;28;20046;-77
2022/11/18 12:49:23;;;;;;;47.45;23.08;;;6.30;99.90;;;;;;4967996;28;20597;-77
2022/11/18 12:51:53;;;;;;;48.13;23.67;;;6.20;99.90;;;;;;4954166;28;20522;-77
2022/11/18 12:54:39;;;;;;;48.22;21.42;;;5.90;99.90;;;;;;4966697;28;20058;-77
2022/11/18 12:57:18;;;;;;;42.33;20.70;;;5.80;99.90;;;;;;4967400;28;20046;-77
2022/11/18 12:59:45;;;;;;;58.78;37.55;;;5.70;99.90;;;;;;4984715;28;20057;-77
2022/11/18 13:02:11;;;;;;;50.75;21.27;;;5.70;99.90;;;;;;4985322;28;20674;-76
2022/11/18 13:04:38;;;;;;;49.80;22.85;;;5.70;99.90;;;;;;4988436;28;20572;-77
2022/11/18 13:10:21;;;;;;;52.10;20.20;;;5.70;99.90;;;;;;4991795;28;20672;-76
2022/11/18 13:12:48;;;;;;;56.60;21.13;;;5.60;99.90;;;;;;4966950;28;20524;-76
2022/11/18 13:18:10;;;;;;;;;;;5.60;99.90;;;;;;4972678;28;20048;-78
2022/11/18 13:20:38;;;;;;;59.88;24.27;;;5.60;99.90;;;;;;4973374;28;19925;-77